Aeroporto :
LOGIN :

Iscrizione | Disclaimer

   EN    FR    IT 

 










Sommario :    VFR   VFR Marginale   IFR   IFR Intensivo   IFR Molto Intensivo
Visibilità : 
Base nubi : 
>= 8 km
>= 3000ft
5 / 8 km
1000 / 3000 ft
1500m / 5 km
500 / 1000 ft
800 / 1500m
200 / 500 ft
< 800m
< 200 ft
Simboli :   Temporali  Nebbia  Neve Forte  Precipitazioni Forti  Vento > 20 kt
SIGMETs :   Varie  Temporali  Ghiacco  Turbolenza  Onda orograficha  Ceneri Vulcaniche






- Altitudine del aeroporto : 202 ft
- Codice IATA : LGW


EGKK - London Gatwick

ULTIMO METAR :
  • 041650Z 20008KT CAVOK 04/01 Q0980

METARs OBSOLETI :
  • 041620Z 20007KT CAVOK 04/01 Q0980
  • 041550Z 21005KT CAVOK 04/01 Q0980
  • 041520Z 21005KT 9999 FEW045 04/01 Q0979
  • 041450Z 22008KT 9999 -RA FEW035 SCT042 05/02 Q0979
  • 041420Z 24009KT 9999 -RA FEW035 05/02 Q0979
  • 041350Z 23009KT 190V250 9999 -RA FEW021 SCT027 05/03 Q0979

TAF TAF EGKK
Valido dal 04 a 12 ore il 05 a 18 ore UTC


041103Z 0412/0518 22010KT 9999 FEW012 SCT020
PROB30
TEMPO 0412/0414 7000 SHRA BKN012
BECMG 0422/0501 12005KT
TEMPO 0500/0512 7000 SHRA BKN012
PROB30
TEMPO 0505/0512 4000 +SHRA BKN007CB
PROB40 0516/0518 6000



MetMap, La meteo Aeronautica in un colpo d'occhio ! - Copyright ORBIFLY Dicembre 2007 - Disclaimer

ORBIFLY MET'MAP TEAM :

Programmazione e sviluppo : Alexandra Zaïnal
Concezione : Baudouin d'Aumeries
Aiuto per la programmazione : Marc-Olivier Méhu
Supporto tecnico e logistico : Manuel Goepfert
Aiuto per la traduzione : Arnaldo La Scala

Contatto : metmap@orbifly.com




FONTI E CREDITI :

   NOAA